createdAt,value
2018-11-12T00:01:41.799Z,2.10
2018-11-12T00:04:10.135Z,1.80
2018-11-12T00:06:38.497Z,2.10
2018-11-12T00:09:08.143Z,1.73
2018-11-12T00:11:36.504Z,2.13
2018-11-12T00:14:05.426Z,1.70
2018-11-12T00:16:33.816Z,2.27
2018-11-12T00:19:02.156Z,2.13
2018-11-12T00:21:30.532Z,2.30
2018-11-12T00:23:59.075Z,2.40
2018-11-12T00:26:27.442Z,2.23
2018-11-12T00:28:56.106Z,2.77
2018-11-12T00:31:24.544Z,3.13
2018-11-12T00:33:52.910Z,2.43
2018-11-12T00:36:21.419Z,2.50
2018-11-12T00:38:49.937Z,2.53
2018-11-12T00:41:18.298Z,2.20
2018-11-12T00:43:46.678Z,2.23
2018-11-12T00:46:15.012Z,2.50
2018-11-12T00:48:43.398Z,2.17
2018-11-12T00:51:11.814Z,2.30
2018-11-12T00:53:40.259Z,2.43
2018-11-12T00:56:08.621Z,2.50
2018-11-12T00:58:36.988Z,2.70
2018-11-12T01:01:05.777Z,2.70
2018-11-12T01:03:35.090Z,2.53
2018-11-12T01:06:03.512Z,2.30
2018-11-12T01:08:31.876Z,2.23
2018-11-12T01:11:00.315Z,1.97
2018-11-12T01:13:28.732Z,2.20
2018-11-12T01:15:57.093Z,1.80
2018-11-12T01:18:25.466Z,2.13
2018-11-12T01:20:53.819Z,2.30
2018-11-12T01:23:22.258Z,2.30
2018-11-12T01:25:50.620Z,2.40
2018-11-12T01:28:18.962Z,2.20
2018-11-12T01:30:47.298Z,2.10
2018-11-12T01:33:15.639Z,1.93
2018-11-12T01:35:43.966Z,2.10
2018-11-12T01:38:12.430Z,1.90
2018-11-12T01:40:40.775Z,2.20
2018-11-12T01:43:09.113Z,2.03
2018-11-12T01:45:37.439Z,2.00
2018-11-12T01:48:05.790Z,2.10
2018-11-12T01:50:34.113Z,2.20
2018-11-12T01:53:02.487Z,2.27
2018-11-12T01:55:30.820Z,2.30
2018-11-12T01:57:59.387Z,2.20
2018-11-12T02:00:27.799Z,2.03
2018-11-12T02:02:56.141Z,2.30
2018-11-12T02:05:24.500Z,2.23
2018-11-12T02:07:52.817Z,2.10
2018-11-12T02:10:21.190Z,2.40
2018-11-12T02:12:49.522Z,2.50
2018-11-12T02:15:19.278Z,2.20
2018-11-12T02:17:48.259Z,2.07
2018-11-12T02:20:17.999Z,2.00
2018-11-12T02:22:47.258Z,2.53
2018-11-12T02:25:16.171Z,2.30
2018-11-12T02:27:44.860Z,2.70
2018-11-12T02:30:15.589Z,3.13
2018-11-12T02:32:43.932Z,3.20
2018-11-12T02:35:12.305Z,3.23
2018-11-12T02:37:41.147Z,3.10
2018-11-12T02:40:11.567Z,3.23
2018-11-12T02:42:40.239Z,3.00
2018-11-12T02:45:09.451Z,3.10
2018-11-12T02:47:38.116Z,2.70
2018-11-12T02:50:07.677Z,2.00
2018-11-12T02:52:36.091Z,1.70
2018-11-12T02:55:05.103Z,1.90
2018-11-12T02:57:33.621Z,1.50
2018-11-12T03:00:01.952Z,1.80
2018-11-12T03:02:30.397Z,1.70
2018-11-12T03:04:58.797Z,1.40
2018-11-12T03:07:27.237Z,1.70
2018-11-12T03:09:55.626Z,1.63
2018-11-12T03:12:23.991Z,1.77
2018-11-12T03:14:52.383Z,1.40
2018-11-12T03:17:20.743Z,1.43
2018-11-12T03:19:49.100Z,1.63
2018-11-12T03:22:17.427Z,1.57
2018-11-12T03:24:45.787Z,1.73
2018-11-12T03:27:14.163Z,1.50
2018-11-12T03:29:42.742Z,1.57
2018-11-12T03:32:11.090Z,1.50
2018-11-12T03:34:39.450Z,1.40
2018-11-12T03:37:08.187Z,1.53
2018-11-12T03:39:36.589Z,1.60
2018-11-12T03:42:05.480Z,1.33
2018-11-12T03:44:33.812Z,1.50
2018-11-12T03:47:02.158Z,1.30
2018-11-12T03:49:30.503Z,1.50
2018-11-12T03:51:59.054Z,1.30
2018-11-12T03:54:27.410Z,1.40
2018-11-12T03:56:55.777Z,1.43
2018-11-12T03:59:24.115Z,1.50
2018-11-12T04:01:52.475Z,1.50
2018-11-12T04:04:20.805Z,1.40
2018-11-12T04:06:49.168Z,1.40
2018-11-12T04:09:17.519Z,1.60
2018-11-12T04:11:46.215Z,1.60
2018-11-12T04:14:14.754Z,1.70
2018-11-12T04:16:45.007Z,1.30
2018-11-12T04:19:13.355Z,1.20
2018-11-12T04:21:41.756Z,1.67
2018-11-12T04:24:10.137Z,1.67
2018-11-12T04:26:38.577Z,1.90
2018-11-12T04:29:06.987Z,1.53
2018-11-12T04:31:35.356Z,1.60
2018-11-12T04:34:03.774Z,1.70
2018-11-12T04:36:32.161Z,1.40
2018-11-12T04:39:00.499Z,1.57
2018-11-12T04:41:28.879Z,1.83
2018-11-12T04:43:57.260Z,1.50
2018-11-12T04:46:25.612Z,1.93
2018-11-12T04:48:53.972Z,1.80
2018-11-12T04:51:22.459Z,1.53
2018-11-12T04:53:50.958Z,2.00
2018-11-12T04:56:20.535Z,2.00
2018-11-12T04:58:48.943Z,1.70
2018-11-12T05:01:17.363Z,1.60
2018-11-12T05:03:45.761Z,1.60
2018-11-12T05:06:14.295Z,1.70
2018-11-12T05:08:42.704Z,1.80
2018-11-12T05:11:11.066Z,1.80
2018-11-12T05:13:39.447Z,2.00
2018-11-12T05:16:07.870Z,1.70
2018-11-12T05:18:36.240Z,1.60
2018-11-12T05:21:05.011Z,2.10
2018-11-12T05:23:33.404Z,2.40
2018-11-12T05:26:02.219Z,1.97
2018-11-12T05:28:30.567Z,1.77
2018-11-12T05:30:58.955Z,1.80
2018-11-12T05:33:27.382Z,2.13
2018-11-12T05:35:55.751Z,2.17
2018-11-12T05:38:24.173Z,1.80
2018-11-12T05:40:52.478Z,2.13
2018-11-12T05:43:20.811Z,1.70
2018-11-12T05:45:49.181Z,1.77
2018-11-12T05:48:17.525Z,1.53
2018-11-12T05:50:45.867Z,1.60
2018-11-12T05:53:14.210Z,1.80
2018-11-12T05:55:42.772Z,2.20
2018-11-12T05:58:11.171Z,1.70
2018-11-12T06:00:39.547Z,1.90
2018-11-12T06:03:07.879Z,1.80
2018-11-12T06:05:36.362Z,1.50
2018-11-12T06:08:04.755Z,2.03
2018-11-12T06:10:34.129Z,1.80
2018-11-12T06:13:02.472Z,1.73
2018-11-12T06:15:30.898Z,1.60
2018-11-12T06:17:59.274Z,1.80
2018-11-12T06:20:29.020Z,1.70
2018-11-12T06:22:57.455Z,2.43
2018-11-12T06:25:28.290Z,1.50
2018-11-12T06:27:57.162Z,1.63
2018-11-12T06:30:28.148Z,2.00
2018-11-12T06:32:56.588Z,2.30
2018-11-12T06:35:24.971Z,1.80
2018-11-12T06:37:53.858Z,2.27
2018-11-12T06:40:23.483Z,2.30
2018-11-12T06:42:52.288Z,2.17
2018-11-12T06:45:22.092Z,1.90
2018-11-12T06:47:51.295Z,1.73
2018-11-12T06:50:21.097Z,1.60
2018-11-12T06:52:49.686Z,1.90
2018-11-12T06:55:18.755Z,1.63
2018-11-12T06:57:47.562Z,1.70
2018-11-12T07:00:20.242Z,1.70
2018-11-12T07:02:48.635Z,1.73
2018-11-12T07:05:17.279Z,1.70
2018-11-12T07:07:46.037Z,1.93
2018-11-12T07:10:15.734Z,1.67
2018-11-12T07:12:45.098Z,1.83
2018-11-12T07:15:15.043Z,1.70
2018-11-12T07:17:43.627Z,1.67
2018-11-12T07:20:13.552Z,1.70
2018-11-12T07:22:43.443Z,1.70
2018-11-12T07:25:12.825Z,2.00
2018-11-12T07:27:41.214Z,2.47
2018-11-12T07:30:18.696Z,2.20
2018-11-12T07:32:47.715Z,1.90
2018-11-12T07:35:16.778Z,2.20
2018-11-12T07:37:46.327Z,1.93
2018-11-12T07:40:15.510Z,2.00
2018-11-12T07:42:44.664Z,1.93
2018-11-12T07:45:15.862Z,2.10
2018-11-12T07:47:45.187Z,1.80
2018-11-12T07:50:15.895Z,2.50
2018-11-12T07:52:44.443Z,1.90
2018-11-12T07:55:14.691Z,1.97
2018-11-12T07:57:43.725Z,2.10
2018-11-12T08:00:15.433Z,3.03
2018-11-12T08:02:45.252Z,2.73
2018-11-12T08:05:14.183Z,2.03
2018-11-12T08:07:43.343Z,2.33
2018-11-12T08:10:13.170Z,2.13
2018-11-12T08:12:42.122Z,1.80
2018-11-12T08:15:12.079Z,2.07
2018-11-12T08:17:40.542Z,1.93
2018-11-12T08:20:10.987Z,2.27
2018-11-12T08:22:39.367Z,2.10
2018-11-12T08:25:08.982Z,1.90
2018-11-12T08:27:37.444Z,1.83
2018-11-12T08:30:08.566Z,2.30
2018-11-12T08:32:36.716Z,3.80
2018-11-12T08:35:05.160Z,3.00
2018-11-12T08:37:33.548Z,3.63
2018-11-12T08:40:02.719Z,2.33
2018-11-12T08:42:32.198Z,2.97
2018-11-12T08:45:07.879Z,2.50
2018-11-12T08:47:36.856Z,2.57
2018-11-12T08:50:07.705Z,2.40
2018-11-12T08:52:36.021Z,2.13
2018-11-12T08:55:04.595Z,2.57
2018-11-12T08:57:32.997Z,1.97
2018-11-12T09:00:01.430Z,2.40
2018-11-12T09:02:29.803Z,1.87
2018-11-12T09:04:58.222Z,2.70
2018-11-12T09:07:26.642Z,2.80
2018-11-12T09:09:55.015Z,4.17
2018-11-12T09:12:23.412Z,2.17
2018-11-12T09:14:51.735Z,1.80
2018-11-12T09:17:20.198Z,2.33
2018-11-12T09:19:48.779Z,2.33
2018-11-12T09:22:17.206Z,2.87
2018-11-12T09:24:45.637Z,2.47
2018-11-12T09:27:14.099Z,1.90
2018-11-12T09:29:42.632Z,2.40
2018-11-12T09:32:10.918Z,4.10
2018-11-12T09:34:39.315Z,2.87
2018-11-12T09:37:08.001Z,2.60
2018-11-12T09:39:36.407Z,2.50
2018-11-12T09:42:05.008Z,3.17
2018-11-12T09:44:33.410Z,3.90
2018-11-12T09:47:01.815Z,3.20
2018-11-12T09:49:30.283Z,2.33
2018-11-12T09:51:58.773Z,2.10
2018-11-12T09:54:27.383Z,2.00
2018-11-12T09:56:55.710Z,2.20
2018-11-12T09:59:24.207Z,2.90
2018-11-12T10:01:53.441Z,2.03
2018-11-12T10:04:21.922Z,2.40
2018-11-12T10:06:50.926Z,2.00
2018-11-12T10:09:20.191Z,1.80
2018-11-12T10:11:48.584Z,2.10
2018-11-12T10:14:16.936Z,2.10
2018-11-12T10:16:45.827Z,1.70
2018-11-12T10:19:11.851Z,3.20
2018-11-12T10:21:40.244Z,2.60
2018-11-12T10:24:08.672Z,2.10
2018-11-12T10:26:37.038Z,2.30
2018-11-12T10:29:05.738Z,3.23
2018-11-12T10:31:34.118Z,2.33
2018-11-12T10:34:03.107Z,3.60
2018-11-12T10:36:31.500Z,2.43
2018-11-12T10:39:00.558Z,2.50
2018-11-12T10:41:29.150Z,3.13
2018-11-12T10:43:57.508Z,2.17
2018-11-12T10:46:25.876Z,2.20
2018-11-12T10:48:54.309Z,3.33
2018-11-12T10:51:22.790Z,4.13
2018-11-12T10:53:51.199Z,2.30
2018-11-12T10:56:19.575Z,3.07
2018-11-12T10:58:47.931Z,2.90
2018-11-12T11:01:18.196Z,3.80
2018-11-12T11:03:50.891Z,3.40
2018-11-12T11:06:19.273Z,2.70
2018-11-12T11:08:47.670Z,2.50
2018-11-12T11:11:16.103Z,1.93
2018-11-12T11:13:44.490Z,2.63
2018-11-12T11:16:13.030Z,2.20
2018-11-12T11:18:41.486Z,2.60
2018-11-12T11:21:09.871Z,2.57
2018-11-12T11:23:38.309Z,2.40
2018-11-12T11:26:06.696Z,2.63
2018-11-12T11:28:35.076Z,2.80
2018-11-12T11:31:03.521Z,3.50
2018-11-12T11:33:31.947Z,3.57
2018-11-12T11:36:00.343Z,4.73
2018-11-12T11:38:28.804Z,2.70
2018-11-12T11:40:57.171Z,3.73
2018-11-12T11:43:25.574Z,2.47
2018-11-12T11:45:53.991Z,2.60
2018-11-12T11:48:22.376Z,2.73
2018-11-12T11:50:50.736Z,3.00
2018-11-12T11:53:19.119Z,3.30
2018-11-12T11:55:47.507Z,2.50
2018-11-12T11:58:16.006Z,3.23
2018-11-12T12:00:44.428Z,2.57
2018-11-12T12:03:12.817Z,3.73
2018-11-12T12:05:41.191Z,2.93
2018-11-12T12:08:09.571Z,3.70
2018-11-12T12:10:37.935Z,2.83
2018-11-12T12:13:06.306Z,2.70
2018-11-12T12:15:34.655Z,2.70
2018-11-12T12:18:03.135Z,3.00
2018-11-12T12:20:31.615Z,2.77
2018-11-12T12:23:00.279Z,2.83
2018-11-12T12:25:28.740Z,4.17
2018-11-12T12:27:57.124Z,2.50
2018-11-12T12:30:27.749Z,2.53
2018-11-12T12:32:57.031Z,3.83
2018-11-12T12:35:25.649Z,3.00
2018-11-12T12:37:54.440Z,5.00
2018-11-12T12:40:23.801Z,4.37
2018-11-12T12:42:52.569Z,2.70
2018-11-12T12:45:22.668Z,2.93
2018-11-12T12:47:51.539Z,2.30
2018-11-12T12:50:20.292Z,2.73
2018-11-12T12:52:48.765Z,2.30
2018-11-12T12:55:17.893Z,2.63
2018-11-12T12:57:46.685Z,2.80
2018-11-12T13:00:31.716Z,2.90
2018-11-12T13:03:00.183Z,2.57
2018-11-12T13:05:28.630Z,3.90
2018-11-12T13:07:57.109Z,2.10
2018-11-12T13:10:25.756Z,2.63
2018-11-12T13:12:54.272Z,2.40
2018-11-12T13:15:22.678Z,3.00
2018-11-12T13:17:51.762Z,2.80
2018-11-12T13:20:21.896Z,2.60
2018-11-12T13:22:50.566Z,2.90
2018-11-12T13:25:19.154Z,2.87
2018-11-12T13:27:48.097Z,2.87
2018-11-12T13:30:20.918Z,2.93
2018-11-12T13:32:49.675Z,3.30
2018-11-12T13:35:23.025Z,3.23
2018-11-12T13:37:51.405Z,3.27
2018-11-12T13:40:22.808Z,2.87
2018-11-12T13:42:52.691Z,2.47
2018-11-12T13:45:21.542Z,2.20
2018-11-12T13:47:49.907Z,3.83
2018-11-12T13:50:19.709Z,2.77
2018-11-12T13:52:49.668Z,2.07
2018-11-12T13:55:19.312Z,2.17
2018-11-12T13:57:47.697Z,2.87
2018-11-12T14:00:18.599Z,3.00
2018-11-12T14:02:47.744Z,2.90
2018-11-12T14:05:17.436Z,2.30
2018-11-12T14:07:46.372Z,2.50
2018-11-12T14:10:16.170Z,2.83
2018-11-12T14:12:45.051Z,3.07
2018-11-12T14:15:15.179Z,2.40
2018-11-12T14:17:43.843Z,2.43
2018-11-12T14:20:12.334Z,2.33
2018-11-12T14:22:41.038Z,2.40
2018-11-12T14:25:11.570Z,2.67
2018-11-12T14:27:40.273Z,2.17
2018-11-12T14:30:10.803Z,2.30
2018-11-12T14:32:39.230Z,2.10
2018-11-12T14:35:08.385Z,2.27
2018-11-12T14:37:36.834Z,2.70
2018-11-12T14:40:06.523Z,2.83
2018-11-12T14:42:35.027Z,2.40
2018-11-12T14:45:03.589Z,3.10
2018-11-12T14:47:32.300Z,3.40
2018-11-12T14:50:00.766Z,3.20
2018-11-12T14:52:29.284Z,2.50
2018-11-12T14:54:57.738Z,2.70
2018-11-12T14:57:26.229Z,2.40
2018-11-12T14:59:54.646Z,2.65
2018-11-12T15:02:23.064Z,3.17
2018-11-12T15:04:51.456Z,2.20
2018-11-12T15:07:19.902Z,2.50
2018-11-12T15:09:48.329Z,2.50
2018-11-12T15:12:16.764Z,2.05
2018-11-12T15:14:45.202Z,2.20
2018-11-12T15:17:14.284Z,2.70
2018-11-12T15:19:42.685Z,2.87
2018-11-12T15:22:11.068Z,2.70
2018-11-12T15:24:39.543Z,2.70
2018-11-12T15:27:07.929Z,3.97
2018-11-12T15:29:36.879Z,2.70
2018-11-12T15:32:05.818Z,2.80
2018-11-12T15:34:34.210Z,2.73
2018-11-12T15:37:02.825Z,3.00
2018-11-12T15:39:31.041Z,3.00
2018-11-12T15:41:59.424Z,2.60
2018-11-12T15:44:27.764Z,2.57
2018-11-12T15:46:56.255Z,3.10
2018-11-12T15:49:24.669Z,2.50
2018-11-12T15:51:53.140Z,4.23
2018-11-12T15:54:21.542Z,2.80
2018-11-12T15:56:49.910Z,3.00
2018-11-12T15:59:18.357Z,3.30
2018-11-12T16:01:46.747Z,2.70
2018-11-12T16:04:15.163Z,2.63
2018-11-12T16:06:43.655Z,2.20
2018-11-12T16:09:14.599Z,2.67
2018-11-12T16:11:43.440Z,2.80
2018-11-12T16:14:11.976Z,2.60
2018-11-12T16:16:40.403Z,3.00
2018-11-12T16:19:09.711Z,3.17
2018-11-12T16:21:38.296Z,2.80
2018-11-12T16:24:07.087Z,3.20
2018-11-12T16:26:35.609Z,3.73
2018-11-12T16:29:04.332Z,3.10
2018-11-12T16:31:32.837Z,3.80
2018-11-12T16:34:01.283Z,3.30
2018-11-12T16:36:29.732Z,2.87
2018-11-12T16:38:58.159Z,2.63
2018-11-12T16:41:26.635Z,2.60
2018-11-12T16:43:55.071Z,2.73
2018-11-12T16:46:23.489Z,2.47
2018-11-12T16:48:51.898Z,2.57
2018-11-12T16:51:20.375Z,3.20
2018-11-12T16:53:48.810Z,3.30
2018-11-12T16:56:17.238Z,2.80
2018-11-12T16:58:45.725Z,3.27
2018-11-12T17:01:14.158Z,2.67
2018-11-12T17:03:42.536Z,2.50
2018-11-12T17:06:10.951Z,2.70
2018-11-12T17:08:39.381Z,2.53
2018-11-12T17:11:07.824Z,2.50
2018-11-12T17:13:36.325Z,3.30
2018-11-12T17:16:04.889Z,3.50
2018-11-12T17:18:33.331Z,3.40
2018-11-12T17:21:01.747Z,3.03
2018-11-12T17:23:30.177Z,2.90
2018-11-12T17:25:58.581Z,2.93
2018-11-12T17:28:26.992Z,3.20
2018-11-12T17:30:55.482Z,3.43
2018-11-12T17:33:23.898Z,2.93
2018-11-12T17:35:52.340Z,3.50
2018-11-12T17:38:20.740Z,3.50
2018-11-12T17:40:49.220Z,4.00
2018-11-12T17:43:17.743Z,4.43
2018-11-12T17:45:46.178Z,5.00
2018-11-12T17:48:14.581Z,4.60
2018-11-12T17:50:42.968Z,4.23
2018-11-12T17:53:11.412Z,4.30
2018-11-12T17:55:39.836Z,4.50
2018-11-12T17:58:08.238Z,5.20
2018-11-12T18:00:37.560Z,5.17
2018-11-12T18:03:06.452Z,5.17
2018-11-12T18:05:34.880Z,6.07
2018-11-12T18:08:03.407Z,5.63
2018-11-12T18:10:31.823Z,4.93
2018-11-12T18:13:01.122Z,4.47
2018-11-12T18:15:29.573Z,8.37
2018-11-12T18:17:57.990Z,11.00
2018-11-12T18:20:27.736Z,5.37
2018-11-12T18:22:56.655Z,5.00
2018-11-12T18:25:25.059Z,4.87
2018-11-12T18:27:54.091Z,5.03
2018-11-12T18:30:24.375Z,6.53
2018-11-12T18:32:53.735Z,7.10
2018-11-12T18:35:22.790Z,7.33
2018-11-12T18:37:51.249Z,7.70
2018-11-12T18:40:21.107Z,8.03
2018-11-12T18:42:49.831Z,10.17
2018-11-12T18:45:19.708Z,8.30
2018-11-12T18:47:48.118Z,8.10
2018-11-12T18:50:19.339Z,10.07
2018-11-12T18:52:47.954Z,8.90
2018-11-12T18:55:16.435Z,9.60
2018-11-12T18:57:45.556Z,8.00
2018-11-12T19:00:15.494Z,7.07
2018-11-12T19:02:44.071Z,6.70
2018-11-12T19:05:15.916Z,5.67
2018-11-12T19:07:45.530Z,6.63
2018-11-12T19:10:16.784Z,5.50
2018-11-12T19:12:45.887Z,4.63
2018-11-12T19:15:15.395Z,7.57
2018-11-12T19:17:45.084Z,5.50
2018-11-12T19:20:14.177Z,5.03
2018-11-12T19:22:42.542Z,6.53
2018-11-12T19:25:12.104Z,7.57
2018-11-12T19:27:41.004Z,7.20
2018-11-12T19:30:13.262Z,7.43
2018-11-12T19:32:41.818Z,5.60
2018-11-12T19:35:11.720Z,6.00
2018-11-12T19:37:40.100Z,8.60
2018-11-12T19:40:11.160Z,4.80
2018-11-12T19:42:39.630Z,5.07
2018-11-12T19:45:09.730Z,4.63
2018-11-12T19:47:38.149Z,4.50
2018-11-12T19:50:08.419Z,5.40
2018-11-12T19:52:36.903Z,5.80
2018-11-12T19:55:05.851Z,5.57
2018-11-12T19:57:34.287Z,5.50
2018-11-12T20:00:03.398Z,8.97
2018-11-12T20:02:32.687Z,6.13
2018-11-12T20:05:01.370Z,6.77
2018-11-12T20:07:29.757Z,5.47
2018-11-12T20:09:58.132Z,5.13
2018-11-12T20:12:26.490Z,4.90
2018-11-12T20:14:54.868Z,5.00
2018-11-12T20:17:23.287Z,5.10
2018-11-12T20:19:51.655Z,5.30
2018-11-12T20:22:20.029Z,5.30
2018-11-12T20:24:48.513Z,5.20
2018-11-12T20:27:16.888Z,4.77
2018-11-12T20:29:45.259Z,4.90
2018-11-12T20:32:13.631Z,4.60
2018-11-12T20:34:42.013Z,4.80
2018-11-12T20:37:10.390Z,5.00
2018-11-12T20:39:38.727Z,5.07
2018-11-12T20:42:07.138Z,8.03
2018-11-12T20:44:35.502Z,5.83
2018-11-12T20:47:03.997Z,6.50
2018-11-12T20:49:32.373Z,7.73
2018-11-12T20:52:00.840Z,6.47
2018-11-12T20:54:29.392Z,6.00
2018-11-12T20:56:57.805Z,6.53
2018-11-12T20:59:26.167Z,10.97
2018-11-12T21:01:54.579Z,24.70
2018-11-12T21:04:22.974Z,9.93
2018-11-12T21:06:51.354Z,8.80
2018-11-12T21:09:19.729Z,8.03
2018-11-12T21:11:48.146Z,7.10
2018-11-12T21:14:16.599Z,7.63
2018-11-12T21:16:44.976Z,7.40
2018-11-12T21:19:13.417Z,8.17
2018-11-12T21:21:41.751Z,9.20
2018-11-12T21:24:10.170Z,19.07
2018-11-12T21:26:38.523Z,7.87
2018-11-12T21:29:07.233Z,7.40
2018-11-12T21:31:35.511Z,7.40
2018-11-12T21:34:03.917Z,7.73
2018-11-12T21:36:32.389Z,7.93
2018-11-12T21:39:00.759Z,7.67
2018-11-12T21:41:29.107Z,7.30
2018-11-12T21:43:57.534Z,6.73
2018-11-12T21:46:25.907Z,6.60
2018-11-12T21:48:54.347Z,7.43
2018-11-12T21:51:22.686Z,6.60
2018-11-12T21:53:51.090Z,6.73
2018-11-12T21:56:19.520Z,7.57
2018-11-12T21:58:48.008Z,6.60
2018-11-12T22:01:16.275Z,6.27
2018-11-12T22:03:44.627Z,7.10
2018-11-12T22:06:12.983Z,6.50
2018-11-12T22:08:41.453Z,6.17
2018-11-12T22:11:09.813Z,7.40
2018-11-12T22:13:38.147Z,6.47
2018-11-12T22:16:07.106Z,6.93
2018-11-12T22:18:35.556Z,6.43
2018-11-12T22:21:03.898Z,5.93
2018-11-12T22:23:32.316Z,6.10
2018-11-12T22:26:00.958Z,5.50
2018-11-12T22:28:34.870Z,5.60
2018-11-12T22:31:03.291Z,5.37
2018-11-12T22:33:31.639Z,5.10
2018-11-12T22:36:00.020Z,5.17
2018-11-12T22:38:28.380Z,5.93
2018-11-12T22:40:56.772Z,4.97
2018-11-12T22:43:25.143Z,4.90
2018-11-12T22:45:53.630Z,5.07
2018-11-12T22:48:21.895Z,4.33
2018-11-12T22:50:50.252Z,5.17
2018-11-12T22:53:18.586Z,4.00
2018-11-12T22:55:46.936Z,4.13
2018-11-12T22:58:15.278Z,3.93
2018-11-12T23:00:44.770Z,4.77
2018-11-12T23:03:13.129Z,4.30
2018-11-12T23:05:41.511Z,4.60
2018-11-12T23:08:09.843Z,3.60
2018-11-12T23:10:38.689Z,3.60
2018-11-12T23:13:07.095Z,3.50
2018-11-12T23:15:35.479Z,3.57
2018-11-12T23:18:03.963Z,3.80
2018-11-12T23:20:32.433Z,4.13
2018-11-12T23:23:00.849Z,4.07
2018-11-12T23:25:29.281Z,6.33
2018-11-12T23:27:57.690Z,5.50
2018-11-12T23:30:26.278Z,5.07
2018-11-12T23:32:54.854Z,11.20
2018-11-12T23:35:24.551Z,9.33
2018-11-12T23:37:53.095Z,7.40
2018-11-12T23:40:21.503Z,6.57
2018-11-12T23:42:49.935Z,9.00
2018-11-12T23:45:18.320Z,5.87
2018-11-12T23:47:46.721Z,6.97
2018-11-12T23:50:16.673Z,7.10
2018-11-12T23:52:46.118Z,9.77
2018-11-12T23:55:14.862Z,10.00
2018-11-12T23:57:43.576Z,10.63
